Time;durP1;ratioP1;P1;durP2;ratioP2;P2;SDS_P1;SDS_P2;PMS_P1;PMS_P2;Temp;Humidity;BMP_temperature;BMP_pressure;BME280_temperature;BME280_humidity;BME280_pressure;Samples;Min_cycle;Max_cycle;Signal;HPM_P1;HPM_P2
2024/03/05 00:00:19;;;;;;;21.75;10.23;;;;;;;;;;5039670;28;20021;-70
2024/03/05 00:03:05;;;;;;;25.52;9.85;;;;;;;;;;5039056;28;20144;-70
2024/03/05 00:05:50;;;;;;;24.98;10.23;;;;;;;;;;5036751;28;20026;-70
2024/03/05 00:08:36;;;;;;;18.92;8.23;;;;;;;;;;5040320;28;20398;-70
2024/03/05 00:11:22;;;;;;;23.77;9.18;;;;;;;;;;5038966;28;20021;-70
2024/03/05 00:14:08;;;;;;;25.55;12.40;;;;;;;;;;5037227;28;20032;-70
2024/03/05 00:16:56;;;;;;;19.38;9.13;;;;;;;;;;5039365;28;20406;-70
2024/03/05 00:19:41;;;;;;;29.95;10.02;;;;;;;;;;5038536;28;20035;-70
2024/03/05 00:22:28;;;;;;;23.08;10.27;;;;;;;;;;5040904;28;20083;-70
2024/03/05 00:25:14;;;;;;;24.15;10.52;;;;;;;;;;5037975;28;20030;-70
2024/03/05 00:28:00;;;;;;;29.10;9.95;;;;;;;;;;5038236;28;20025;-70
2024/03/05 00:30:46;;;;;;;18.23;9.57;;;;;;;;;;5038432;28;20022;-71
2024/03/05 00:33:31;;;;;;;19.10;10.73;;;;;;;;;;5038811;28;20564;-70
2024/03/05 00:36:17;;;;;;;20.35;11.27;;;;;;;;;;5039623;28;20490;-70
2024/03/05 00:39:03;;;;;;;21.95;8.73;;;;;;;;;;5037838;28;20028;-70
2024/03/05 00:41:48;;;;;;;18.73;8.57;;;;;;;;;;5038294;28;20464;-70
2024/03/05 00:44:34;;;;;;;21.13;9.25;;;;;;;;;;5037715;28;20083;-70
2024/03/05 00:47:20;;;;;;;16.77;8.55;;;;;;;;;;5036982;28;20083;-70
2024/03/05 00:50:06;;;;;;;20.83;8.73;;;;;;;;;;5039461;28;20029;-70
2024/03/05 00:52:52;;;;;;;17.58;7.63;;;;;;;;;;5018389;28;20402;-71
2024/03/05 00:55:38;;;;;;;25.15;9.10;;;;;;;;;;5036121;28;20025;-70
2024/03/05 00:58:24;;;;;;;22.05;9.88;;;;;;;;;;5038078;28;20022;-70
2024/03/05 01:01:10;;;;;;;14.48;8.48;;;;;;;;;;5037111;28;20080;-70
2024/03/05 01:03:55;;;;;;;22.80;9.02;;;;;;;;;;5034990;28;20064;-70
2024/03/05 01:06:44;;;;;;;25.42;8.77;;;;;;;;;;5033845;28;20026;-70
2024/03/05 01:09:30;;;;;;;13.43;8.52;;;;;;;;;;5034525;28;20529;-70
2024/03/05 01:12:16;;;;;;;15.48;8.20;;;;;;;;;;5034807;28;20097;-70
2024/03/05 01:15:02;;;;;;;15.00;8.48;;;;;;;;;;5032722;28;20375;-70
2024/03/05 01:17:48;;;;;;;14.52;7.78;;;;;;;;;;5035511;28;20029;-70
2024/03/05 01:20:33;;;;;;;17.17;8.65;;;;;;;;;;5033967;28;20029;-70
2024/03/05 01:23:20;;;;;;;13.95;8.38;;;;;;;;;;5015049;28;20472;-70
2024/03/05 01:26:05;;;;;;;16.40;7.70;;;;;;;;;;5015566;28;20112;-70
2024/03/05 01:28:51;;;;;;;17.48;8.32;;;;;;;;;;5013912;28;20033;-70
2024/03/05 01:31:37;;;;;;;22.95;8.15;;;;;;;;;;5029288;28;20033;-70
2024/03/05 01:34:23;;;;;;;15.50;7.90;;;;;;;;;;5034156;28;20021;-70
2024/03/05 01:37:11;;;;;;;18.00;7.20;;;;;;;;;;5034606;28;20112;-70
2024/03/05 01:39:57;;;;;;;20.92;7.78;;;;;;;;;;5033999;28;20505;-70
2024/03/05 01:42:42;;;;;;;28.13;8.18;;;;;;;;;;5034140;28;20406;-70
2024/03/05 01:45:28;;;;;;;20.95;8.50;;;;;;;;;;5033181;28;20057;-70
2024/03/05 01:48:16;;;;;;;20.92;8.73;;;;;;;;;;5035003;28;20028;-70
2024/03/05 01:51:02;;;;;;;15.48;7.13;;;;;;;;;;5032580;28;20021;-70
2024/03/05 01:53:47;;;;;;;16.17;7.20;;;;;;;;;;5020449;28;20022;-70
2024/03/05 01:56:33;;;;;;;18.45;8.77;;;;;;;;;;5014902;28;20018;-70
2024/03/05 01:59:19;;;;;;;11.25;6.93;;;;;;;;;;5016617;28;20045;-71
2024/03/05 02:02:07;;;;;;;16.55;7.50;;;;;;;;;;5013793;28;20088;-70
2024/03/05 02:04:57;;;;;;;16.52;7.28;;;;;;;;;;5015269;28;20038;-70
2024/03/05 02:07:42;;;;;;;19.50;7.97;;;;;;;;;;5006464;28;20448;-70
2024/03/05 02:10:28;;;;;;;13.27;7.85;;;;;;;;;;5033733;28;20032;-70
2024/03/05 02:13:14;;;;;;;13.85;7.45;;;;;;;;;;5024879;28;20021;-70
2024/03/05 02:15:59;;;;;;;21.50;7.78;;;;;;;;;;5015096;28;20517;-70
2024/03/05 02:18:45;;;;;;;19.17;8.65;;;;;;;;;;5015003;28;20116;-70
2024/03/05 02:21:31;;;;;;;21.98;9.13;;;;;;;;;;5013168;28;20013;-70
2024/03/05 02:24:17;;;;;;;18.15;7.10;;;;;;;;;;5019707;28;20479;-70
2024/03/05 02:27:03;;;;;;;17.10;9.30;;;;;;;;;;5033537;28;20026;-70
2024/03/05 02:29:48;;;;;;;17.20;6.82;;;;;;;;;;5033552;28;20391;-70
2024/03/05 02:32:34;;;;;;;21.17;8.02;;;;;;;;;;5031833;28;20108;-70
2024/03/05 02:35:21;;;;;;;19.15;8.13;;;;;;;;;;5032099;28;20498;-70
2024/03/05 02:38:07;;;;;;;14.73;6.60;;;;;;;;;;5033146;28;20022;-70
2024/03/05 02:40:53;;;;;;;20.08;8.63;;;;;;;;;;5031732;28;20094;-70
2024/03/05 02:43:39;;;;;;;14.95;8.48;;;;;;;;;;5032634;28;20125;-70
2024/03/05 02:46:24;;;;;;;16.27;6.70;;;;;;;;;;5032198;28;20025;-70
2024/03/05 02:49:11;;;;;;;19.95;7.97;;;;;;;;;;5032877;28;20025;-70
2024/03/05 02:51:57;;;;;;;17.20;7.78;;;;;;;;;;5033011;28;20037;-70
2024/03/05 02:54:42;;;;;;;25.17;9.15;;;;;;;;;;5032231;28;20018;-70
2024/03/05 02:57:28;;;;;;;15.35;7.75;;;;;;;;;;5031871;28;20097;-70
2024/03/05 03:00:20;;;;;;;15.07;7.75;;;;;;;;;;5033398;28;20479;-70
2024/03/05 03:03:05;;;;;;;17.00;7.95;;;;;;;;;;5032567;28;20028;-70
2024/03/05 03:05:52;;;;;;;17.63;8.35;;;;;;;;;;5031909;28;20025;-70
2024/03/05 03:08:37;;;;;;;19.05;9.10;;;;;;;;;;5033064;28;20104;-70
2024/03/05 03:11:23;;;;;;;16.35;9.85;;;;;;;;;;5027835;28;20032;-70
2024/03/05 03:14:09;;;;;;;19.30;8.02;;;;;;;;;;5014659;28;20022;-70
2024/03/05 03:16:55;;;;;;;16.25;7.60;;;;;;;;;;5013598;28;20087;-70
2024/03/05 03:19:41;;;;;;;21.70;8.93;;;;;;;;;;5006208;28;20068;-70
2024/03/05 03:22:27;;;;;;;12.23;6.55;;;;;;;;;;5022978;28;20511;-70
2024/03/05 03:25:13;;;;;;;20.60;9.43;;;;;;;;;;5024340;28;20045;-70
2024/03/05 03:27:59;;;;;;;20.02;8.40;;;;;;;;;;5027739;28;20034;-70
2024/03/05 03:30:44;;;;;;;18.48;8.02;;;;;;;;;;5019958;28;20552;-70
2024/03/05 03:33:30;;;;;;;22.48;9.50;;;;;;;;;;5012556;28;20045;-70
2024/03/05 03:36:24;;;;;;;21.00;8.98;;;;;;;;;;5015510;28;20075;-70
2024/03/05 03:39:23;;;;;;;19.05;8.70;;;;;;;;;;5030141;28;20021;-69
2024/03/05 03:42:10;;;;;;;19.75;8.57;;;;;;;;;;5012882;28;20495;-70
2024/03/05 03:44:56;;;;;;;17.10;7.90;;;;;;;;;;5013967;28;20025;-70
2024/03/05 03:47:42;;;;;;;16.05;9.57;;;;;;;;;;5032552;28;20021;-70
2024/03/05 03:50:28;;;;;;;22.23;8.10;;;;;;;;;;5029718;28;20402;-69
2024/03/05 03:53:13;;;;;;;11.93;8.40;;;;;;;;;;5013676;28;20112;-69
2024/03/05 03:55:59;;;;;;;15.95;7.60;;;;;;;;;;5012547;28;20018;-70
2024/03/05 03:58:45;;;;;;;17.95;9.63;;;;;;;;;;5012291;28;20029;-70
2024/03/05 04:01:31;;;;;;;14.27;8.40;;;;;;;;;;5019886;28;20068;-70
2024/03/05 04:04:17;;;;;;;23.85;9.60;;;;;;;;;;5011140;28;20032;-70
2024/03/05 04:07:03;;;;;;;19.73;8.40;;;;;;;;;;5012929;28;20037;-69
2024/03/05 04:09:50;;;;;;;17.92;9.45;;;;;;;;;;5011234;28;20037;-70
2024/03/05 04:12:36;;;;;;;21.02;8.80;;;;;;;;;;5012048;28;20022;-70
2024/03/05 04:15:22;;;;;;;17.05;9.80;;;;;;;;;;5016854;28;20021;-70
2024/03/05 04:18:07;;;;;;;21.10;8.77;;;;;;;;;;5031684;28;20075;-70
2024/03/05 04:20:53;;;;;;;14.88;7.72;;;;;;;;;;5029878;28;20037;-70
2024/03/05 04:23:39;;;;;;;19.90;9.73;;;;;;;;;;5032274;28;20044;-69
2024/03/05 04:26:26;;;;;;;22.48;11.07;;;;;;;;;;5030720;28;20479;-71
2024/03/05 04:29:16;;;;;;;15.65;8.95;;;;;;;;;;5031697;28;20486;-70
2024/03/05 04:32:08;;;;;;;18.80;9.07;;;;;;;;;;5014273;28;20038;-70
2024/03/05 04:35:00;;;;;;;26.60;8.82;;;;;;;;;;5011707;28;20111;-70
2024/03/05 04:37:46;;;;;;;15.18;8.48;;;;;;;;;;5024418;28;20046;-70
2024/03/05 04:40:35;;;;;;;16.38;7.90;;;;;;;;;;5016217;28;20483;-70
2024/03/05 04:43:20;;;;;;;14.95;8.55;;;;;;;;;;5014675;28;20084;-70
2024/03/05 04:46:07;;;;;;;18.05;9.30;;;;;;;;;;5026800;28;20025;-70
2024/03/05 04:48:54;;;;;;;19.20;8.57;;;;;;;;;;5033904;28;20029;-70
2024/03/05 04:51:39;;;;;;;10.02;7.88;;;;;;;;;;5035472;28;20082;-70
2024/03/05 04:54:25;;;;;;;17.70;9.73;;;;;;;;;;5028166;28;20095;-70
2024/03/05 04:57:11;;;;;;;18.95;8.77;;;;;;;;;;5015006;28;20560;-70
2024/03/05 04:59:57;;;;;;;19.90;8.13;;;;;;;;;;5020154;28;20022;-70
2024/03/05 05:02:43;;;;;;;21.15;9.77;;;;;;;;;;5014828;28;20038;-70
2024/03/05 05:05:31;;;;;;;18.02;8.18;;;;;;;;;;5069673;22;20083;-69
2024/03/05 05:08:19;;;;;;;14.68;8.40;;;;;;;;;;5056290;28;20025;-70
2024/03/05 05:11:05;;;;;;;21.58;9.82;;;;;;;;;;5055768;28;20090;-70
2024/03/05 05:13:50;;;;;;;19.73;9.00;;;;;;;;;;5055225;28;20089;-70
2024/03/05 05:16:36;;;;;;;18.25;9.18;;;;;;;;;;5055922;28;20064;-70
2024/03/05 05:19:22;;;;;;;19.45;8.00;;;;;;;;;;5054659;28;20032;-69
2024/03/05 05:22:07;;;;;;;17.77;9.57;;;;;;;;;;5056141;28;20029;-70
2024/03/05 05:24:53;;;;;;;16.95;9.00;;;;;;;;;;5055398;28;20027;-70
2024/03/05 05:27:39;;;;;;;16.60;6.75;;;;;;;;;;5055413;28;20434;-70
2024/03/05 05:30:26;;;;;;;17.40;7.95;;;;;;;;;;5054263;28;20029;-70
2024/03/05 05:33:12;;;;;;;13.73;8.18;;;;;;;;;;5055701;28;20095;-70
2024/03/05 05:35:57;;;;;;;25.67;10.77;;;;;;;;;;5054567;28;20025;-70
2024/03/05 05:38:44;;;;;;;16.42;8.38;;;;;;;;;;5054526;28;20059;-70
2024/03/05 05:41:29;;;;;;;15.82;8.77;;;;;;;;;;5055303;28;20055;-70
2024/03/05 05:44:15;;;;;;;17.88;6.97;;;;;;;;;;5055067;28;20390;-70
2024/03/05 05:47:03;;;;;;;21.73;8.80;;;;;;;;;;5054599;28;20055;-70
2024/03/05 05:49:49;;;;;;;15.85;7.25;;;;;;;;;;5039832;28;20021;-70
2024/03/05 05:52:34;;;;;;;15.40;7.63;;;;;;;;;;5054734;28;20083;-70
2024/03/05 05:55:24;;;;;;;14.32;6.65;;;;;;;;;;5039558;28;20433;-70
2024/03/05 05:58:13;;;;;;;17.83;8.05;;;;;;;;;;5054653;28;20025;-70
2024/03/05 06:01:02;;;;;;;16.65;8.07;;;;;;;;;;5055381;28;20100;-70
2024/03/05 06:03:48;;;;;;;14.05;6.38;;;;;;;;;;5039342;28;20394;-69
2024/03/05 06:06:34;;;;;;;14.18;8.65;;;;;;;;;;5054271;28;20086;-70
2024/03/05 06:09:33;;;;;;;19.95;7.38;;;;;;;;;;5054753;28;20032;-70
2024/03/05 06:12:19;;;;;;;12.65;7.00;;;;;;;;;;5054069;28;20017;-70
2024/03/05 06:15:05;;;;;;;15.27;7.70;;;;;;;;;;5053114;28;20063;-70
2024/03/05 06:17:52;;;;;;;11.50;6.28;;;;;;;;;;5053752;28;20445;-70
2024/03/05 06:20:38;;;;;;;15.23;7.38;;;;;;;;;;5054023;28;20020;-70
2024/03/05 06:23:24;;;;;;;17.23;7.47;;;;;;;;;;5039354;28;20028;-70
2024/03/05 06:26:10;;;;;;;12.65;7.07;;;;;;;;;;5053483;28;20444;-70
2024/03/05 06:28:57;;;;;;;15.63;6.68;;;;;;;;;;5053890;28;20390;-70
2024/03/05 06:31:43;;;;;;;15.45;7.68;;;;;;;;;;5053674;28;20152;-70
2024/03/05 06:34:30;;;;;;;19.17;8.48;;;;;;;;;;5048986;28;21355;-69
2024/03/05 06:37:16;;;;;;;15.63;8.27;;;;;;;;;;5035857;28;20024;-70
2024/03/05 06:40:06;;;;;;;17.35;8.02;;;;;;;;;;5036131;28;20160;-69
2024/03/05 06:42:52;;;;;;;15.65;7.50;;;;;;;;;;5034325;28;20087;-69
2024/03/05 06:45:39;;;;;;;13.52;8.20;;;;;;;;;;5033396;28;20024;-70
2024/03/05 06:48:26;;;;;;;15.00;6.72;;;;;;;;;;5033613;28;20022;-71
2024/03/05 06:51:26;;;;;;;15.80;7.10;;;;;;;;;;5034739;28;20067;-70
2024/03/05 06:57:16;;;;;;;19.45;6.95;;;;;;;;;;5049223;28;20025;-70
2024/03/05 07:00:15;;;;;;;12.52;6.70;;;;;;;;;;5052072;28;20044;-69
2024/03/05 07:03:00;;;;;;;18.60;7.97;;;;;;;;;;5051696;28;20482;-71
2024/03/05 07:05:47;;;;;;;12.10;6.93;;;;;;;;;;5038677;28;20575;-70
2024/03/05 07:08:34;;;;;;;13.75;6.65;;;;;;;;;;5038269;28;20072;-70
2024/03/05 07:11:20;;;;;;;14.02;8.07;;;;;;;;;;5038127;28;20029;-70
2024/03/05 07:14:07;;;;;;;13.05;5.57;;;;;;;;;;5036858;28;20423;-70
2024/03/05 07:16:53;;;;;;;14.43;7.78;;;;;;;;;;5052718;28;20021;-70
2024/03/05 07:19:38;;;;;;;11.68;6.72;;;;;;;;;;5053076;28;20032;-70
2024/03/05 07:22:24;;;;;;;11.35;8.00;;;;;;;;;;5045145;28;20115;-69
2024/03/05 07:25:10;;;;;;;11.52;7.22;;;;;;;;;;5037171;28;20478;-70
2024/03/05 07:27:56;;;;;;;14.48;5.97;;;;;;;;;;5033045;28;20041;-69
2024/03/05 07:30:42;;;;;;;14.68;6.80;;;;;;;;;;5035282;28;20108;-70
2024/03/05 07:33:28;;;;;;;14.10;5.35;;;;;;;;;;5037467;28;20636;-69
2024/03/05 07:36:13;;;;;;;13.85;6.70;;;;;;;;;;5043970;28;20017;-69
2024/03/05 07:38:59;;;;;;;17.80;8.05;;;;;;;;;;5038011;28;20051;-70
2024/03/05 07:41:44;;;;;;;12.30;6.53;;;;;;;;;;5051916;28;20100;-70
2024/03/05 07:44:31;;;;;;;12.15;6.72;;;;;;;;;;5052164;28;20116;-70
2024/03/05 07:47:17;;;;;;;17.05;7.32;;;;;;;;;;5037525;28;20110;-69
2024/03/05 07:50:04;;;;;;;15.05;7.13;;;;;;;;;;5051832;28;20029;-70
2024/03/05 07:52:50;;;;;;;14.60;7.50;;;;;;;;;;5047927;28;20031;-69
2024/03/05 07:55:41;;;;;;;17.27;6.88;;;;;;;;;;5031771;28;20017;-68
2024/03/05 07:58:26;;;;;;;;;;;;;;;;;;5033037;28;20026;-69
2024/03/05 08:01:12;;;;;;;11.02;5.45;;;;;;;;;;5035568;28;19946;-69
2024/03/05 08:03:58;;;;;;;14.15;6.38;;;;;;;;;;5051909;28;20083;-70
2024/03/05 08:06:44;;;;;;;13.95;6.82;;;;;;;;;;5042235;28;20543;-70
2024/03/05 08:09:30;;;;;;;14.07;7.85;;;;;;;;;;5047321;28;20086;-70
2024/03/05 08:12:17;;;;;;;12.57;6.63;;;;;;;;;;5031625;28;20022;-69
2024/03/05 08:15:03;;;;;;;13.80;7.57;;;;;;;;;;5020606;28;20072;-70
2024/03/05 08:17:49;;;;;;;14.15;6.55;;;;;;;;;;5021165;28;20022;-70
2024/03/05 08:20:35;;;;;;;15.77;7.30;;;;;;;;;;5035776;28;20517;-70
2024/03/05 08:23:20;;;;;;;12.35;7.50;;;;;;;;;;5042404;28;20033;-70
2024/03/05 08:26:07;;;;;;;13.90;8.10;;;;;;;;;;5048124;28;20029;-70
2024/03/05 08:28:52;;;;;;;17.88;8.75;;;;;;;;;;5055958;28;20108;-70
2024/03/05 08:31:38;;;;;;;18.30;8.25;;;;;;;;;;5055040;28;20025;-70
2024/03/05 08:34:24;;;;;;;11.98;7.00;;;;;;;;;;5055958;28;20059;-70
2024/03/05 08:37:11;;;;;;;13.65;8.13;;;;;;;;;;5055686;28;20021;-70
2024/03/05 08:39:57;;;;;;;20.45;8.13;;;;;;;;;;5054816;28;20054;-71
2024/03/05 08:42:48;;;;;;;15.63;7.10;;;;;;;;;;5056104;28;20137;-71
2024/03/05 08:45:36;;;;;;;12.05;7.35;;;;;;;;;;5055512;28;20032;-71
2024/03/05 08:48:21;;;;;;;13.98;7.28;;;;;;;;;;5041415;28;20051;-70
2024/03/05 08:51:08;;;;;;;15.23;6.95;;;;;;;;;;5037008;28;20597;-70
2024/03/05 08:53:55;;;;;;;10.40;6.53;;;;;;;;;;5044890;28;20479;-70
2024/03/05 08:56:40;;;;;;;12.02;5.38;;;;;;;;;;5035085;28;20465;-70
2024/03/05 08:59:26;;;;;;;14.95;7.30;;;;;;;;;;5035041;28;20025;-70
2024/03/05 09:02:13;;;;;;;15.25;8.90;;;;;;;;;;5014210;28;20156;-70
2024/03/05 09:04:59;;;;;;;14.32;8.15;;;;;;;;;;5033778;28;20060;-69
2024/03/05 09:07:44;;;;;;;13.65;7.22;;;;;;;;;;5034663;28;20084;-70
2024/03/05 09:10:31;;;;;;;10.50;8.02;;;;;;;;;;5050806;28;20060;-70
2024/03/05 09:13:17;;;;;;;15.93;7.10;;;;;;;;;;5039428;28;20021;-70
2024/03/05 09:16:03;;;;;;;12.20;7.28;;;;;;;;;;5054434;28;20029;-70
2024/03/05 09:18:48;;;;;;;13.52;5.85;;;;;;;;;;5039717;28;20028;-70
2024/03/05 09:21:35;;;;;;;14.20;7.40;;;;;;;;;;5054651;28;20043;-70
2024/03/05 09:24:20;;;;;;;12.50;6.68;;;;;;;;;;5054454;28;20082;-70
2024/03/05 09:27:06;;;;;;;11.30;6.40;;;;;;;;;;5053811;28;20490;-70
2024/03/05 09:29:55;;;;;;;13.48;7.32;;;;;;;;;;5054373;28;20129;-70
2024/03/05 09:32:41;;;;;;;12.68;7.25;;;;;;;;;;5054765;28;20498;-70
2024/03/05 09:35:27;;;;;;;15.77;7.50;;;;;;;;;;5053761;28;20098;-70
2024/03/05 09:38:14;;;;;;;14.60;6.47;;;;;;;;;;5055272;28;20375;-70
2024/03/05 09:41:01;;;;;;;10.70;6.57;;;;;;;;;;5040197;28;20041;-70
2024/03/05 09:43:47;;;;;;;14.63;7.20;;;;;;;;;;5054468;28;20439;-70
2024/03/05 09:46:33;;;;;;;19.13;7.72;;;;;;;;;;5054905;28;20028;-70
2024/03/05 09:49:18;;;;;;;11.10;6.55;;;;;;;;;;5039008;28;20075;-70
2024/03/05 09:52:05;;;;;;;14.77;7.00;;;;;;;;;;5039688;28;20159;-71
2024/03/05 09:54:50;;;;;;;13.35;6.95;;;;;;;;;;5054804;28;20029;-70
2024/03/05 09:57:39;;;;;;;14.98;7.50;;;;;;;;;;5053250;28;20571;-70
2024/03/05 10:00:27;;;;;;;17.98;6.25;;;;;;;;;;5054127;28;20402;-70
2024/03/05 10:03:14;;;;;;;11.32;6.55;;;;;;;;;;5039769;28;20059;-70
2024/03/05 10:06:01;;;;;;;16.85;7.20;;;;;;;;;;5053691;28;20021;-70
2024/03/05 10:08:46;;;;;;;13.23;6.93;;;;;;;;;;5038346;28;20025;-71
2024/03/05 10:11:33;;;;;;;8.82;6.40;;;;;;;;;;5034661;28;20132;-70
2024/03/05 10:14:22;;;;;;;14.50;6.13;;;;;;;;;;5034934;28;20039;-70
2024/03/05 10:17:07;;;;;;;14.43;7.57;;;;;;;;;;5033458;28;20513;-70
2024/03/05 10:19:54;;;;;;;12.50;6.97;;;;;;;;;;5033848;28;20120;-69
2024/03/05 10:22:50;;;;;;;11.20;5.95;;;;;;;;;;5037280;28;20017;-70
2024/03/05 10:25:36;;;;;;;14.05;6.60;;;;;;;;;;5052544;28;20025;-70
2024/03/05 10:28:21;;;;;;;12.10;7.13;;;;;;;;;;5038591;28;20044;-70
2024/03/05 10:31:07;;;;;;;11.18;6.15;;;;;;;;;;5050998;28;21800;-72
2024/03/05 10:33:54;;;;;;;13.65;7.40;;;;;;;;;;5039392;28;20116;-68
2024/03/05 10:36:40;;;;;;;14.00;7.15;;;;;;;;;;5039579;28;20026;-69
2024/03/05 10:39:26;;;;;;;14.70;7.18;;;;;;;;;;5022970;28;20115;-69
2024/03/05 10:42:11;;;;;;;16.65;6.80;;;;;;;;;;5040307;28;20021;-69
2024/03/05 10:44:58;;;;;;;12.68;6.75;;;;;;;;;;5040246;28;20029;-69
2024/03/05 10:47:46;;;;;;;11.85;5.60;;;;;;;;;;5017394;28;20406;-69
2024/03/05 10:50:35;;;;;;;11.70;7.97;;;;;;;;;;5029695;28;20029;-69
2024/03/05 10:53:22;;;;;;;12.00;6.85;;;;;;;;;;5039071;28;20375;-69
2024/03/05 10:56:08;;;;;;;15.75;7.25;;;;;;;;;;5024140;28;20040;-69
2024/03/05 11:01:56;;;;;;;11.00;7.13;;;;;;;;;;5051592;28;20055;-70
2024/03/05 11:04:42;;;;;;;14.63;6.38;;;;;;;;;;5060930;22;20041;-68
2024/03/05 11:07:28;;;;;;;13.93;7.45;;;;;;;;;;5038971;28;20024;-68
2024/03/05 11:10:13;;;;;;;12.45;7.70;;;;;;;;;;5038692;28;20025;-68
2024/03/05 11:12:59;;;;;;;12.93;6.90;;;;;;;;;;5039575;28;20021;-68
2024/03/05 11:15:45;;;;;;;17.70;7.70;;;;;;;;;;5039411;28;20104;-69
2024/03/05 11:18:32;;;;;;;13.93;7.43;;;;;;;;;;5052777;28;20025;-68
2024/03/05 11:21:22;;;;;;;13.93;7.35;;;;;;;;;;5037602;28;20490;-68
2024/03/05 11:24:07;;;;;;;15.93;7.70;;;;;;;;;;5053803;28;20021;-68
2024/03/05 11:27:11;;;;;;;13.10;7.20;;;;;;;;;;5053904;28;20079;-69
2024/03/05 11:30:09;;;;;;;15.52;7.57;;;;;;;;;;5053866;28;20478;-68
2024/03/05 11:32:55;;;;;;;10.60;7.05;;;;;;;;;;5038527;28;20567;-68
2024/03/05 11:35:44;;;;;;;14.35;6.93;;;;;;;;;;5053413;28;20024;-69
2024/03/05 11:38:30;;;;;;;18.40;8.07;;;;;;;;;;5053371;28;20032;-68
2024/03/05 11:41:25;;;;;;;13.55;7.30;;;;;;;;;;5052725;28;20021;-68
2024/03/05 11:44:12;;;;;;;15.40;7.13;;;;;;;;;;5053799;28;20055;-68
2024/03/05 11:46:58;;;;;;;12.30;7.47;;;;;;;;;;5052301;28;20029;-68
2024/03/05 11:49:43;;;;;;;13.82;8.02;;;;;;;;;;5051229;28;20031;-68
2024/03/05 11:52:30;;;;;;;16.48;7.65;;;;;;;;;;5053148;28;20033;-69
2024/03/05 11:55:24;;;;;;;12.30;7.15;;;;;;;;;;5053220;28;20041;-69
2024/03/05 11:58:10;;;;;;;15.32;7.95;;;;;;;;;;5051462;28;20115;-68
2024/03/05 12:01:02;;;;;;;16.48;7.43;;;;;;;;;;5053690;28;20029;-68
2024/03/05 12:03:49;;;;;;;13.38;7.13;;;;;;;;;;5036843;28;20525;-68
2024/03/05 12:06:43;;;;;;;14.30;8.13;;;;;;;;;;5038842;28;20033;-68
2024/03/05 12:09:28;;;;;;;14.20;6.63;;;;;;;;;;5051597;28;20017;-68
2024/03/05 12:12:16;;;;;;;16.35;8.07;;;;;;;;;;5053307;28;20094;-68
2024/03/05 12:15:04;;;;;;;15.65;6.43;;;;;;;;;;5052589;28;20021;-68
2024/03/05 12:17:50;;;;;;;12.20;6.72;;;;;;;;;;5053371;28;20078;-68
2024/03/05 12:20:37;;;;;;;16.88;7.40;;;;;;;;;;5053220;28;20025;-68
2024/03/05 12:23:22;;;;;;;12.27;6.32;;;;;;;;;;5051288;28;20029;-68
2024/03/05 12:26:09;;;;;;;16.90;7.13;;;;;;;;;;5052695;28;20028;-69
2024/03/05 12:28:54;;;;;;;12.18;6.60;;;;;;;;;;5051621;28;20028;-68
2024/03/05 12:31:41;;;;;;;12.18;7.03;;;;;;;;;;5052864;28;20029;-68
2024/03/05 12:34:27;;;;;;;13.77;7.70;;;;;;;;;;5038223;28;20024;-67
2024/03/05 12:37:13;;;;;;;15.05;7.93;;;;;;;;;;5045833;28;20024;-68
2024/03/05 12:40:07;;;;;;;13.23;7.35;;;;;;;;;;5036949;28;20055;-68
2024/03/05 12:42:52;;;;;;;12.15;7.35;;;;;;;;;;5052021;28;20053;-68
2024/03/05 12:45:38;;;;;;;15.05;7.25;;;;;;;;;;5052235;28;20029;-68
2024/03/05 12:48:27;;;;;;;16.98;7.38;;;;;;;;;;5030321;28;20029;-67
2024/03/05 12:51:12;;;;;;;11.85;6.20;;;;;;;;;;5050496;28;20061;-68
2024/03/05 12:54:05;;;;;;;14.40;7.88;;;;;;;;;;5033071;28;20029;-68
2024/03/05 12:56:50;;;;;;;14.38;7.65;;;;;;;;;;5017382;28;20071;-68
2024/03/05 12:59:36;;;;;;;13.25;7.68;;;;;;;;;;5035175;28;20025;-67
2024/03/05 13:02:21;;;;;;;16.05;8.15;;;;;;;;;;5055445;28;20044;-68
2024/03/05 13:05:08;;;;;;;13.55;7.75;;;;;;;;;;5055361;28;20108;-68
2024/03/05 13:07:54;;;;;;;11.25;7.55;;;;;;;;;;5055939;28;20025;-68
2024/03/05 13:10:39;;;;;;;14.80;6.03;;;;;;;;;;5055232;28;20036;-68
2024/03/05 13:13:25;;;;;;;13.35;7.53;;;;;;;;;;5050922;28;20059;-67
2024/03/05 13:16:11;;;;;;;11.85;6.38;;;;;;;;;;5036442;28;20099;-68
2024/03/05 13:18:56;;;;;;;15.45;8.20;;;;;;;;;;5034642;28;20025;-66
2024/03/05 13:21:42;;;;;;;11.73;5.53;;;;;;;;;;5040606;28;20420;-68
2024/03/05 13:24:28;;;;;;;12.73;6.85;;;;;;;;;;5048663;28;20033;-67
2024/03/05 13:27:14;;;;;;;11.48;6.68;;;;;;;;;;5033880;28;20525;-67
2024/03/05 13:30:00;;;;;;;11.88;5.60;;;;;;;;;;5044655;28;20471;-68
2024/03/05 13:32:47;;;;;;;12.88;5.88;;;;;;;;;;5055653;28;20016;-68
2024/03/05 13:35:32;;;;;;;13.50;6.32;;;;;;;;;;5034936;28;20049;-67
2024/03/05 13:38:18;;;;;;;13.25;6.50;;;;;;;;;;5043547;28;20584;-68
2024/03/05 13:41:04;;;;;;;11.43;6.20;;;;;;;;;;5038081;28;20029;-68
2024/03/05 13:43:49;;;;;;;12.38;6.28;;;;;;;;;;5044922;28;20040;-68
2024/03/05 13:46:37;;;;;;;9.63;5.70;;;;;;;;;;5019727;28;20549;-68
2024/03/05 13:49:23;;;;;;;10.32;6.20;;;;;;;;;;5030817;28;20060;-68
2024/03/05 13:52:10;;;;;;;6.40;5.30;;;;;;;;;;5021767;28;20514;-69
2024/03/05 13:54:56;;;;;;;11.23;5.57;;;;;;;;;;5039355;28;20113;-68
2024/03/05 13:57:42;;;;;;;8.65;5.95;;;;;;;;;;5030252;28;20025;-68
2024/03/05 14:00:31;;;;;;;8.95;4.65;;;;;;;;;;5036659;28;20021;-68
2024/03/05 14:03:17;;;;;;;10.13;5.45;;;;;;;;;;5054869;28;20021;-68
2024/03/05 14:06:06;;;;;;;8.82;5.25;;;;;;;;;;5037025;28;20044;-68
2024/03/05 14:08:52;;;;;;;10.57;6.07;;;;;;;;;;5035518;28;20036;-68
2024/03/05 14:11:40;;;;;;;11.95;6.57;;;;;;;;;;5038500;28;20025;-69
2024/03/05 14:14:25;;;;;;;10.55;3.80;;;;;;;;;;5037575;28;20461;-68
2024/03/05 14:17:11;;;;;;;9.88;4.88;;;;;;;;;;5044061;28;20939;-67
2024/03/05 14:19:57;;;;;;;9.63;5.25;;;;;;;;;;5042520;28;20021;-68
2024/03/05 14:22:43;;;;;;;14.65;6.28;;;;;;;;;;5037771;28;20021;-68
2024/03/05 14:25:29;;;;;;;19.40;7.43;;;;;;;;;;5034225;28;20036;-68
2024/03/05 14:28:15;;;;;;;12.70;6.22;;;;;;;;;;5037343;28;20025;-68
2024/03/05 14:31:04;;;;;;;12.93;5.93;;;;;;;;;;5027186;28;20029;-68
2024/03/05 14:33:51;;;;;;;14.25;5.93;;;;;;;;;;5037507;28;20055;-67
2024/03/05 14:36:36;;;;;;;10.40;5.85;;;;;;;;;;5037577;28;20086;-68
2024/03/05 14:39:22;;;;;;;11.48;6.70;;;;;;;;;;5042111;28;20140;-67
2024/03/05 14:42:08;;;;;;;16.23;5.65;;;;;;;;;;5041245;28;20441;-68
2024/03/05 14:44:53;;;;;;;14.48;7.43;;;;;;;;;;5036474;28;20029;-68
2024/03/05 14:47:40;;;;;;;18.02;7.90;;;;;;;;;;5042774;28;20028;-67
2024/03/05 14:50:25;;;;;;;13.20;6.13;;;;;;;;;;5040801;28;20372;-68
2024/03/05 14:53:11;;;;;;;16.60;7.00;;;;;;;;;;5044195;28;20032;-66
2024/03/05 14:55:57;;;;;;;17.50;7.28;;;;;;;;;;5041313;28;20026;-68
2024/03/05 14:58:42;;;;;;;17.40;8.32;;;;;;;;;;5040778;28;20115;-68
2024/03/05 15:01:28;;;;;;;17.27;6.97;;;;;;;;;;5041242;28;20017;-68
2024/03/05 15:04:13;;;;;;;13.95;6.53;;;;;;;;;;5037897;28;20493;-68
2024/03/05 15:06:59;;;;;;;12.93;6.60;;;;;;;;;;5041899;28;20024;-67
2024/03/05 15:09:45;;;;;;;12.57;7.35;;;;;;;;;;5040766;28;20029;-68
2024/03/05 15:12:33;;;;;;;11.23;6.78;;;;;;;;;;5039436;28;20116;-68
2024/03/05 15:15:20;;;;;;;12.23;6.95;;;;;;;;;;5021669;28;20478;-68
2024/03/05 15:18:06;;;;;;;17.00;7.70;;;;;;;;;;5033502;28;20039;-68
2024/03/05 15:20:52;;;;;;;17.08;6.22;;;;;;;;;;5043160;28;20445;-67
2024/03/05 15:23:37;;;;;;;16.05;7.15;;;;;;;;;;5041480;28;20033;-68
2024/03/05 15:26:23;;;;;;;13.77;7.97;;;;;;;;;;5045934;28;20091;-68
2024/03/05 15:29:10;;;;;;;10.90;5.85;;;;;;;;;;5042946;28;20414;-67
2024/03/05 15:31:56;;;;;;;18.92;8.25;;;;;;;;;;5037265;28;20506;-66
2024/03/05 15:34:42;;;;;;;13.55;7.65;;;;;;;;;;5041692;28;20056;-67
2024/03/05 15:37:28;;;;;;;16.75;7.90;;;;;;;;;;5038517;28;20508;-68
2024/03/05 15:40:18;;;;;;;14.00;7.22;;;;;;;;;;5037372;28;20405;-68
2024/03/05 15:43:04;;;;;;;17.63;9.13;;;;;;;;;;5037234;28;20615;-66
2024/03/05 15:45:51;;;;;;;21.88;7.55;;;;;;;;;;5043677;28;20382;-65
2024/03/05 15:48:36;;;;;;;19.90;9.77;;;;;;;;;;5040750;28;20033;-65
2024/03/05 15:51:22;;;;;;;18.65;9.25;;;;;;;;;;5038287;28;20041;-65
2024/03/05 15:54:08;;;;;;;22.92;9.48;;;;;;;;;;5041586;28;20026;-65
2024/03/05 15:57:02;;;;;;;19.35;9.63;;;;;;;;;;5040185;28;20021;-66
2024/03/05 16:02:51;;;;;;;19.65;10.43;;;;;;;;;;5042385;28;20123;-67
2024/03/05 16:05:41;;;;;;;15.73;8.20;;;;;;;;;;5039416;28;20025;-66
2024/03/05 16:08:27;;;;;;;21.80;9.98;;;;;;;;;;5021500;28;20087;-66
2024/03/05 16:11:15;;;;;;;20.45;10.57;;;;;;;;;;5029070;28;20512;-66
2024/03/05 16:14:01;;;;;;;20.60;9.52;;;;;;;;;;5042683;28;20047;-66
2024/03/05 16:16:46;;;;;;;18.30;10.13;;;;;;;;;;5039206;28;20145;-66
2024/03/05 16:19:32;;;;;;;19.90;8.73;;;;;;;;;;5042223;28;20459;-66
2024/03/05 16:22:17;;;;;;;18.38;9.13;;;;;;;;;;5037663;28;20371;-67
2024/03/05 16:25:12;;;;;;;20.85;10.45;;;;;;;;;;5045475;28;20028;-68
2024/03/05 16:27:58;;;;;;;17.63;10.25;;;;;;;;;;5042041;28;20036;-68
2024/03/05 16:30:43;;;;;;;20.88;10.65;;;;;;;;;;5046066;28;20029;-68
2024/03/05 16:33:29;;;;;;;21.45;9.85;;;;;;;;;;5047716;28;20025;-68